sensor_id;sensor_type;location;lat;lon;timestamp;P1;durP1;ratioP1;P2;durP2;ratioP2
48993;SDS011;34804;49.214;12.276;2024-01-15T00:00:33;49.92;;;18.73;;
48993;SDS011;34804;49.214;12.276;2024-01-15T00:03:00;49.03;;;19.58;;
48993;SDS011;34804;49.214;12.276;2024-01-15T00:05:27;48.35;;;19.00;;
48993;SDS011;34804;49.214;12.276;2024-01-15T00:07:54;47.03;;;19.52;;
48993;SDS011;34804;49.214;12.276;2024-01-15T00:10:21;50.57;;;19.07;;
48993;SDS011;34804;49.214;12.276;2024-01-15T00:12:48;55.40;;;21.33;;
48993;SDS011;34804;49.214;12.276;2024-01-15T00:15:15;53.78;;;21.92;;
48993;SDS011;34804;49.214;12.276;2024-01-15T00:17:42;47.95;;;20.20;;
48993;SDS011;34804;49.214;12.276;2024-01-15T00:20:09;49.70;;;20.20;;
48993;SDS011;34804;49.214;12.276;2024-01-15T00:22:36;50.77;;;21.10;;
48993;SDS011;34804;49.214;12.276;2024-01-15T00:25:03;46.65;;;22.40;;
48993;SDS011;34804;49.214;12.276;2024-01-15T00:27:30;46.03;;;19.10;;
48993;SDS011;34804;49.214;12.276;2024-01-15T00:29:57;49.55;;;21.17;;
48993;SDS011;34804;49.214;12.276;2024-01-15T00:32:24;49.80;;;19.15;;
48993;SDS011;34804;49.214;12.276;2024-01-15T00:34:51;49.17;;;18.65;;
48993;SDS011;34804;49.214;12.276;2024-01-15T00:37:18;39.85;;;16.92;;
48993;SDS011;34804;49.214;12.276;2024-01-15T00:39:45;39.70;;;16.23;;
48993;SDS011;34804;49.214;12.276;2024-01-15T00:42:12;40.13;;;16.47;;
48993;SDS011;34804;49.214;12.276;2024-01-15T00:44:39;42.63;;;16.40;;
48993;SDS011;34804;49.214;12.276;2024-01-15T00:47:06;36.93;;;14.43;;
48993;SDS011;34804;49.214;12.276;2024-01-15T00:49:32;41.47;;;15.70;;
48993;SDS011;34804;49.214;12.276;2024-01-15T00:51:59;36.40;;;14.93;;
48993;SDS011;34804;49.214;12.276;2024-01-15T00:54:27;48.10;;;17.33;;
48993;SDS011;34804;49.214;12.276;2024-01-15T00:56:54;45.93;;;16.30;;
48993;SDS011;34804;49.214;12.276;2024-01-15T00:59:21;42.27;;;15.73;;
48993;SDS011;34804;49.214;12.276;2024-01-15T01:01:48;37.53;;;15.27;;
48993;SDS011;34804;49.214;12.276;2024-01-15T01:04:15;41.57;;;16.00;;
48993;SDS011;34804;49.214;12.276;2024-01-15T01:06:43;42.73;;;15.40;;
48993;SDS011;34804;49.214;12.276;2024-01-15T01:09:10;45.43;;;17.10;;
48993;SDS011;34804;49.214;12.276;2024-01-15T01:11:37;40.63;;;15.70;;
48993;SDS011;34804;49.214;12.276;2024-01-15T01:14:04;47.80;;;17.13;;
48993;SDS011;34804;49.214;12.276;2024-01-15T01:16:31;43.70;;;17.77;;
48993;SDS011;34804;49.214;12.276;2024-01-15T01:19:05;41.23;;;16.23;;
48993;SDS011;34804;49.214;12.276;2024-01-15T01:21:33;50.38;;;16.60;;
48993;SDS011;34804;49.214;12.276;2024-01-15T01:24:00;46.23;;;16.97;;
48993;SDS011;34804;49.214;12.276;2024-01-15T01:26:28;39.50;;;16.10;;
48993;SDS011;34804;49.214;12.276;2024-01-15T01:28:57;46.43;;;16.60;;
48993;SDS011;34804;49.214;12.276;2024-01-15T01:31:23;45.22;;;16.95;;
48993;SDS011;34804;49.214;12.276;2024-01-15T01:33:50;47.35;;;16.67;;
48993;SDS011;34804;49.214;12.276;2024-01-15T01:36:17;44.73;;;17.57;;
48993;SDS011;34804;49.214;12.276;2024-01-15T01:38:44;50.67;;;17.40;;
48993;SDS011;34804;49.214;12.276;2024-01-15T01:41:11;44.63;;;17.30;;
48993;SDS011;34804;49.214;12.276;2024-01-15T01:43:38;46.83;;;16.17;;
48993;SDS011;34804;49.214;12.276;2024-01-15T01:46:05;45.57;;;16.20;;
48993;SDS011;34804;49.214;12.276;2024-01-15T01:48:34;46.60;;;18.07;;
48993;SDS011;34804;49.214;12.276;2024-01-15T01:51:02;40.73;;;16.43;;
48993;SDS011;34804;49.214;12.276;2024-01-15T01:53:30;42.97;;;17.17;;
48993;SDS011;34804;49.214;12.276;2024-01-15T01:56:00;46.90;;;17.57;;
48993;SDS011;34804;49.214;12.276;2024-01-15T01:58:29;42.45;;;17.20;;
48993;SDS011;34804;49.214;12.276;2024-01-15T02:00:58;46.00;;;16.38;;
48993;SDS011;34804;49.214;12.276;2024-01-15T02:03:26;46.47;;;15.53;;
48993;SDS011;34804;49.214;12.276;2024-01-15T02:05:54;41.77;;;15.83;;
48993;SDS011;34804;49.214;12.276;2024-01-15T02:08:22;45.17;;;17.20;;
48993;SDS011;34804;49.214;12.276;2024-01-15T02:10:49;48.78;;;16.42;;
48993;SDS011;34804;49.214;12.276;2024-01-15T02:13:16;47.73;;;15.53;;
48993;SDS011;34804;49.214;12.276;2024-01-15T02:15:44;43.25;;;16.33;;
48993;SDS011;34804;49.214;12.276;2024-01-15T02:18:11;46.08;;;15.15;;
48993;SDS011;34804;49.214;12.276;2024-01-15T02:20:38;37.10;;;15.03;;
48993;SDS011;34804;49.214;12.276;2024-01-15T02:23:09;41.90;;;16.08;;
48993;SDS011;34804;49.214;12.276;2024-01-15T02:25:41;37.92;;;13.73;;
48993;SDS011;34804;49.214;12.276;2024-01-15T02:28:15;43.00;;;15.50;;
48993;SDS011;34804;49.214;12.276;2024-01-15T02:30:43;36.23;;;14.70;;
48993;SDS011;34804;49.214;12.276;2024-01-15T02:33:11;42.25;;;14.18;;
48993;SDS011;34804;49.214;12.276;2024-01-15T02:35:39;39.25;;;14.45;;
48993;SDS011;34804;49.214;12.276;2024-01-15T02:38:06;34.95;;;13.85;;
48993;SDS011;34804;49.214;12.276;2024-01-15T02:40:33;38.50;;;13.37;;
48993;SDS011;34804;49.214;12.276;2024-01-15T02:43:01;37.35;;;14.32;;
48993;SDS011;34804;49.214;12.276;2024-01-15T02:45:28;37.58;;;14.15;;
48993;SDS011;34804;49.214;12.276;2024-01-15T02:47:55;39.13;;;14.32;;
48993;SDS011;34804;49.214;12.276;2024-01-15T02:50:22;36.60;;;13.95;;
48993;SDS011;34804;49.214;12.276;2024-01-15T02:52:49;35.88;;;14.10;;
48993;SDS011;34804;49.214;12.276;2024-01-15T02:55:16;34.50;;;14.27;;
48993;SDS011;34804;49.214;12.276;2024-01-15T02:57:44;38.00;;;14.15;;
48993;SDS011;34804;49.214;12.276;2024-01-15T03:00:11;42.92;;;14.48;;
48993;SDS011;34804;49.214;12.276;2024-01-15T03:02:39;34.17;;;11.75;;
48993;SDS011;34804;49.214;12.276;2024-01-15T03:05:13;34.95;;;13.80;;
48993;SDS011;34804;49.214;12.276;2024-01-15T03:07:40;32.50;;;12.75;;
48993;SDS011;34804;49.214;12.276;2024-01-15T03:10:07;35.30;;;14.15;;
48993;SDS011;34804;49.214;12.276;2024-01-15T03:12:34;36.72;;;14.05;;
48993;SDS011;34804;49.214;12.276;2024-01-15T03:15:01;38.28;;;14.55;;
48993;SDS011;34804;49.214;12.276;2024-01-15T03:17:30;37.42;;;13.55;;
48993;SDS011;34804;49.214;12.276;2024-01-15T03:19:57;37.38;;;13.43;;
48993;SDS011;34804;49.214;12.276;2024-01-15T03:22:24;40.80;;;14.60;;
48993;SDS011;34804;49.214;12.276;2024-01-15T03:24:52;31.23;;;12.75;;
48993;SDS011;34804;49.214;12.276;2024-01-15T03:27:19;38.80;;;12.85;;
48993;SDS011;34804;49.214;12.276;2024-01-15T03:29:47;36.55;;;13.02;;
48993;SDS011;34804;49.214;12.276;2024-01-15T03:32:13;37.08;;;13.82;;
48993;SDS011;34804;49.214;12.276;2024-01-15T03:34:42;32.78;;;13.30;;
48993;SDS011;34804;49.214;12.276;2024-01-15T03:37:09;39.13;;;13.95;;
48993;SDS011;34804;49.214;12.276;2024-01-15T03:39:36;36.00;;;13.40;;
48993;SDS011;34804;49.214;12.276;2024-01-15T03:42:03;33.95;;;12.95;;
48993;SDS011;34804;49.214;12.276;2024-01-15T03:44:31;39.13;;;13.57;;
48993;SDS011;34804;49.214;12.276;2024-01-15T03:46:58;36.88;;;13.13;;
48993;SDS011;34804;49.214;12.276;2024-01-15T03:49:25;35.35;;;13.05;;
48993;SDS011;34804;49.214;12.276;2024-01-15T03:51:52;37.20;;;14.05;;
48993;SDS011;34804;49.214;12.276;2024-01-15T03:54:19;36.90;;;12.77;;
48993;SDS011;34804;49.214;12.276;2024-01-15T03:56:46;38.60;;;12.07;;
48993;SDS011;34804;49.214;12.276;2024-01-15T03:59:13;33.97;;;13.40;;
48993;SDS011;34804;49.214;12.276;2024-01-15T04:01:40;34.10;;;13.98;;
48993;SDS011;34804;49.214;12.276;2024-01-15T04:04:07;34.72;;;12.18;;
48993;SDS011;34804;49.214;12.276;2024-01-15T04:06:34;31.40;;;11.45;;
48993;SDS011;34804;49.214;12.276;2024-01-15T04:09:01;35.35;;;12.80;;
48993;SDS011;34804;49.214;12.276;2024-01-15T04:11:29;29.30;;;11.98;;
48993;SDS011;34804;49.214;12.276;2024-01-15T04:13:56;32.35;;;11.50;;
48993;SDS011;34804;49.214;12.276;2024-01-15T04:16:23;30.50;;;11.10;;
48993;SDS011;34804;49.214;12.276;2024-01-15T04:18:49;29.33;;;11.55;;
48993;SDS011;34804;49.214;12.276;2024-01-15T04:21:17;33.05;;;12.50;;
48993;SDS011;34804;49.214;12.276;2024-01-15T04:23:44;32.35;;;12.57;;
48993;SDS011;34804;49.214;12.276;2024-01-15T04:26:11;31.50;;;12.13;;
48993;SDS011;34804;49.214;12.276;2024-01-15T04:28:38;35.53;;;11.90;;
48993;SDS011;34804;49.214;12.276;2024-01-15T04:31:05;28.23;;;11.88;;
48993;SDS011;34804;49.214;12.276;2024-01-15T04:33:33;31.50;;;11.00;;
48993;SDS011;34804;49.214;12.276;2024-01-15T04:36:03;30.10;;;12.35;;
48993;SDS011;34804;49.214;12.276;2024-01-15T04:38:31;30.77;;;12.27;;
48993;SDS011;34804;49.214;12.276;2024-01-15T04:40:59;33.47;;;11.10;;
48993;SDS011;34804;49.214;12.276;2024-01-15T04:43:26;32.50;;;10.60;;
48993;SDS011;34804;49.214;12.276;2024-01-15T04:45:53;28.35;;;10.60;;
48993;SDS011;34804;49.214;12.276;2024-01-15T04:48:20;33.25;;;11.05;;
48993;SDS011;34804;49.214;12.276;2024-01-15T04:50:49;30.90;;;11.38;;
48993;SDS011;34804;49.214;12.276;2024-01-15T04:53:17;32.90;;;10.27;;
48993;SDS011;34804;49.214;12.276;2024-01-15T04:55:43;31.25;;;11.35;;
48993;SDS011;34804;49.214;12.276;2024-01-15T04:58:10;27.02;;;10.38;;
48993;SDS011;34804;49.214;12.276;2024-01-15T05:00:37;26.45;;;10.65;;
48993;SDS011;34804;49.214;12.276;2024-01-15T05:03:04;30.92;;;10.60;;
48993;SDS011;34804;49.214;12.276;2024-01-15T05:05:31;26.13;;;10.40;;
48993;SDS011;34804;49.214;12.276;2024-01-15T05:07:58;26.10;;;9.65;;
48993;SDS011;34804;49.214;12.276;2024-01-15T05:10:25;27.45;;;10.75;;
48993;SDS011;34804;49.214;12.276;2024-01-15T05:12:52;25.38;;;9.75;;
48993;SDS011;34804;49.214;12.276;2024-01-15T05:15:19;32.05;;;10.43;;
48993;SDS011;34804;49.214;12.276;2024-01-15T05:17:46;31.42;;;9.57;;
48993;SDS011;34804;49.214;12.276;2024-01-15T05:20:13;29.92;;;10.52;;
48993;SDS011;34804;49.214;12.276;2024-01-15T05:22:40;25.35;;;9.32;;
48993;SDS011;34804;49.214;12.276;2024-01-15T05:25:06;24.65;;;9.48;;
48993;SDS011;34804;49.214;12.276;2024-01-15T05:27:33;23.23;;;9.73;;
48993;SDS011;34804;49.214;12.276;2024-01-15T05:30:01;27.55;;;10.52;;
48993;SDS011;34804;49.214;12.276;2024-01-15T05:32:29;28.75;;;11.40;;
48993;SDS011;34804;49.214;12.276;2024-01-15T05:34:56;23.52;;;10.40;;
48993;SDS011;34804;49.214;12.276;2024-01-15T05:37:22;26.52;;;9.35;;
48993;SDS011;34804;49.214;12.276;2024-01-15T05:39:50;27.67;;;9.98;;
48993;SDS011;34804;49.214;12.276;2024-01-15T05:42:17;23.75;;;10.27;;
48993;SDS011;34804;49.214;12.276;2024-01-15T05:44:44;24.00;;;9.00;;
48993;SDS011;34804;49.214;12.276;2024-01-15T05:47:11;27.30;;;9.93;;
48993;SDS011;34804;49.214;12.276;2024-01-15T05:49:38;24.13;;;10.32;;
48993;SDS011;34804;49.214;12.276;2024-01-15T05:52:05;25.85;;;9.20;;
48993;SDS011;34804;49.214;12.276;2024-01-15T05:54:32;23.13;;;9.75;;
48993;SDS011;34804;49.214;12.276;2024-01-15T05:56:59;27.15;;;9.43;;
48993;SDS011;34804;49.214;12.276;2024-01-15T05:59:26;22.63;;;9.30;;
48993;SDS011;34804;49.214;12.276;2024-01-15T06:01:53;22.30;;;8.90;;
48993;SDS011;34804;49.214;12.276;2024-01-15T06:04:20;28.00;;;10.38;;
48993;SDS011;34804;49.214;12.276;2024-01-15T06:06:47;20.63;;;9.57;;
48993;SDS011;34804;49.214;12.276;2024-01-15T06:09:14;20.83;;;9.23;;
48993;SDS011;34804;49.214;12.276;2024-01-15T06:11:41;23.75;;;9.60;;
48993;SDS011;34804;49.214;12.276;2024-01-15T06:14:07;23.13;;;9.48;;
48993;SDS011;34804;49.214;12.276;2024-01-15T06:16:34;26.38;;;10.13;;
48993;SDS011;34804;49.214;12.276;2024-01-15T06:19:01;22.70;;;8.38;;
48993;SDS011;34804;49.214;12.276;2024-01-15T06:21:28;20.90;;;8.77;;
48993;SDS011;34804;49.214;12.276;2024-01-15T06:23:55;24.63;;;9.27;;
48993;SDS011;34804;49.214;12.276;2024-01-15T06:26:23;26.42;;;10.35;;
48993;SDS011;34804;49.214;12.276;2024-01-15T06:28:50;21.52;;;9.48;;
48993;SDS011;34804;49.214;12.276;2024-01-15T06:31:16;25.67;;;9.82;;
48993;SDS011;34804;49.214;12.276;2024-01-15T06:33:43;21.70;;;9.80;;
48993;SDS011;34804;49.214;12.276;2024-01-15T06:36:14;22.52;;;9.27;;
48993;SDS011;34804;49.214;12.276;2024-01-15T06:38:43;26.70;;;9.50;;
48993;SDS011;34804;49.214;12.276;2024-01-15T06:41:10;27.40;;;9.30;;
48993;SDS011;34804;49.214;12.276;2024-01-15T06:43:38;21.27;;;9.25;;
48993;SDS011;34804;49.214;12.276;2024-01-15T06:46:06;20.42;;;9.43;;
48993;SDS011;34804;49.214;12.276;2024-01-15T06:48:34;22.40;;;8.77;;
48993;SDS011;34804;49.214;12.276;2024-01-15T06:51:01;20.08;;;9.80;;
48993;SDS011;34804;49.214;12.276;2024-01-15T06:53:28;25.88;;;10.00;;
48993;SDS011;34804;49.214;12.276;2024-01-15T06:55:55;23.95;;;8.80;;
48993;SDS011;34804;49.214;12.276;2024-01-15T06:58:22;23.27;;;8.73;;
48993;SDS011;34804;49.214;12.276;2024-01-15T07:00:49;23.52;;;9.98;;
48993;SDS011;34804;49.214;12.276;2024-01-15T07:03:16;18.98;;;8.10;;
48993;SDS011;34804;49.214;12.276;2024-01-15T07:05:42;22.92;;;9.68;;
48993;SDS011;34804;49.214;12.276;2024-01-15T07:08:09;21.60;;;8.38;;
48993;SDS011;34804;49.214;12.276;2024-01-15T07:10:36;22.27;;;8.90;;
48993;SDS011;34804;49.214;12.276;2024-01-15T07:13:03;21.00;;;8.27;;
48993;SDS011;34804;49.214;12.276;2024-01-15T07:15:32;20.75;;;9.10;;
48993;SDS011;34804;49.214;12.276;2024-01-15T07:17:59;22.08;;;9.02;;
48993;SDS011;34804;49.214;12.276;2024-01-15T07:20:26;20.33;;;8.05;;
48993;SDS011;34804;49.214;12.276;2024-01-15T07:22:53;21.60;;;9.18;;
48993;SDS011;34804;49.214;12.276;2024-01-15T07:25:20;21.08;;;8.75;;
48993;SDS011;34804;49.214;12.276;2024-01-15T07:27:47;20.42;;;8.70;;
48993;SDS011;34804;49.214;12.276;2024-01-15T07:30:14;18.55;;;8.45;;
48993;SDS011;34804;49.214;12.276;2024-01-15T07:32:41;18.83;;;7.90;;
48993;SDS011;34804;49.214;12.276;2024-01-15T07:35:09;19.70;;;8.25;;
48993;SDS011;34804;49.214;12.276;2024-01-15T07:37:36;17.75;;;7.72;;
48993;SDS011;34804;49.214;12.276;2024-01-15T07:40:03;20.92;;;8.27;;
48993;SDS011;34804;49.214;12.276;2024-01-15T07:42:32;20.77;;;8.65;;
48993;SDS011;34804;49.214;12.276;2024-01-15T07:44:59;21.38;;;8.80;;
48993;SDS011;34804;49.214;12.276;2024-01-15T07:47:26;20.10;;;7.82;;
48993;SDS011;34804;49.214;12.276;2024-01-15T07:49:55;18.73;;;7.50;;
48993;SDS011;34804;49.214;12.276;2024-01-15T07:52:25;19.58;;;8.40;;
48993;SDS011;34804;49.214;12.276;2024-01-15T07:54:52;19.33;;;8.10;;
48993;SDS011;34804;49.214;12.276;2024-01-15T07:57:19;18.45;;;7.35;;
48993;SDS011;34804;49.214;12.276;2024-01-15T07:59:46;20.10;;;7.65;;
48993;SDS011;34804;49.214;12.276;2024-01-15T08:02:13;15.85;;;7.82;;
48993;SDS011;34804;49.214;12.276;2024-01-15T08:04:39;20.35;;;8.27;;
48993;SDS011;34804;49.214;12.276;2024-01-15T08:07:07;16.83;;;7.55;;
48993;SDS011;34804;49.214;12.276;2024-01-15T08:09:34;15.70;;;6.85;;
48993;SDS011;34804;49.214;12.276;2024-01-15T08:12:01;19.20;;;7.95;;
48993;SDS011;34804;49.214;12.276;2024-01-15T08:14:29;15.23;;;6.75;;
48993;SDS011;34804;49.214;12.276;2024-01-15T08:16:56;16.35;;;7.15;;
48993;SDS011;34804;49.214;12.276;2024-01-15T08:19:24;18.17;;;6.70;;
48993;SDS011;34804;49.214;12.276;2024-01-15T08:21:50;18.10;;;7.20;;
48993;SDS011;34804;49.214;12.276;2024-01-15T08:24:18;17.13;;;6.30;;
48993;SDS011;34804;49.214;12.276;2024-01-15T08:26:45;18.02;;;7.32;;
48993;SDS011;34804;49.214;12.276;2024-01-15T08:29:12;18.67;;;6.88;;
48993;SDS011;34804;49.214;12.276;2024-01-15T08:31:38;16.38;;;6.47;;
48993;SDS011;34804;49.214;12.276;2024-01-15T08:34:06;14.60;;;6.30;;
48993;SDS011;34804;49.214;12.276;2024-01-15T08:36:33;14.60;;;6.30;;
48993;SDS011;34804;49.214;12.276;2024-01-15T08:39:02;14.73;;;6.80;;
48993;SDS011;34804;49.214;12.276;2024-01-15T08:41:32;14.60;;;6.93;;
48993;SDS011;34804;49.214;12.276;2024-01-15T08:44:00;15.90;;;7.07;;
48993;SDS011;34804;49.214;12.276;2024-01-15T08:46:27;13.73;;;6.30;;
48993;SDS011;34804;49.214;12.276;2024-01-15T08:48:54;16.10;;;7.32;;
48993;SDS011;34804;49.214;12.276;2024-01-15T08:51:21;14.95;;;6.47;;
48993;SDS011;34804;49.214;12.276;2024-01-15T08:53:48;14.68;;;6.35;;
48993;SDS011;34804;49.214;12.276;2024-01-15T08:56:15;17.85;;;6.55;;
48993;SDS011;34804;49.214;12.276;2024-01-15T08:58:42;15.70;;;6.95;;
48993;SDS011;34804;49.214;12.276;2024-01-15T09:01:09;16.45;;;7.55;;
48993;SDS011;34804;49.214;12.276;2024-01-15T09:03:37;17.77;;;6.82;;
48993;SDS011;34804;49.214;12.276;2024-01-15T09:06:04;15.07;;;6.40;;
48993;SDS011;34804;49.214;12.276;2024-01-15T09:08:31;20.10;;;6.80;;
48993;SDS011;34804;49.214;12.276;2024-01-15T09:10:57;19.27;;;7.50;;
48993;SDS011;34804;49.214;12.276;2024-01-15T09:13:25;18.45;;;7.38;;
48993;SDS011;34804;49.214;12.276;2024-01-15T09:15:52;15.40;;;7.45;;
48993;SDS011;34804;49.214;12.276;2024-01-15T09:18:24;15.50;;;6.47;;
48993;SDS011;34804;49.214;12.276;2024-01-15T09:20:51;16.13;;;6.85;;
48993;SDS011;34804;49.214;12.276;2024-01-15T09:23:18;15.27;;;6.68;;
48993;SDS011;34804;49.214;12.276;2024-01-15T09:25:44;17.27;;;6.75;;
48993;SDS011;34804;49.214;12.276;2024-01-15T09:28:11;14.68;;;6.68;;
48993;SDS011;34804;49.214;12.276;2024-01-15T09:30:38;14.10;;;6.60;;
48993;SDS011;34804;49.214;12.276;2024-01-15T09:33:05;13.98;;;6.65;;
48993;SDS011;34804;49.214;12.276;2024-01-15T09:35:32;15.40;;;6.78;;
48993;SDS011;34804;49.214;12.276;2024-01-15T09:37:59;16.52;;;6.97;;
48993;SDS011;34804;49.214;12.276;2024-01-15T09:40:28;15.88;;;6.95;;
48993;SDS011;34804;49.214;12.276;2024-01-15T09:42:58;17.55;;;6.35;;
48993;SDS011;34804;49.214;12.276;2024-01-15T09:45:26;15.45;;;6.40;;
48993;SDS011;34804;49.214;12.276;2024-01-15T09:47:53;13.18;;;5.68;;
48993;SDS011;34804;49.214;12.276;2024-01-15T09:50:20;13.93;;;6.20;;
48993;SDS011;34804;49.214;12.276;2024-01-15T09:52:47;15.38;;;6.82;;
48993;SDS011;34804;49.214;12.276;2024-01-15T09:55:17;13.05;;;6.65;;
48993;SDS011;34804;49.214;12.276;2024-01-15T09:57:45;13.65;;;5.72;;
48993;SDS011;34804;49.214;12.276;2024-01-15T10:00:18;16.58;;;7.18;;
48993;SDS011;34804;49.214;12.276;2024-01-15T10:02:46;15.10;;;6.30;;
48993;SDS011;34804;49.214;12.276;2024-01-15T10:05:13;15.38;;;6.45;;
48993;SDS011;34804;49.214;12.276;2024-01-15T10:07:40;16.50;;;5.97;;
48993;SDS011;34804;49.214;12.276;2024-01-15T10:10:08;15.40;;;6.50;;
48993;SDS011;34804;49.214;12.276;2024-01-15T10:12:36;15.35;;;6.55;;
48993;SDS011;34804;49.214;12.276;2024-01-15T10:15:05;17.40;;;7.00;;
48993;SDS011;34804;49.214;12.276;2024-01-15T10:17:36;12.52;;;5.93;;
48993;SDS011;34804;49.214;12.276;2024-01-15T10:20:11;12.70;;;5.90;;
48993;SDS011;34804;49.214;12.276;2024-01-15T10:22:42;18.23;;;7.13;;
48993;SDS011;34804;49.214;12.276;2024-01-15T10:25:10;18.17;;;6.78;;
48993;SDS011;34804;49.214;12.276;2024-01-15T10:27:39;16.17;;;5.88;;
48993;SDS011;34804;49.214;12.276;2024-01-15T10:30:08;16.23;;;6.68;;
48993;SDS011;34804;49.214;12.276;2024-01-15T10:32:36;13.48;;;5.88;;
48993;SDS011;34804;49.214;12.276;2024-01-15T10:35:03;14.40;;;6.25;;
48993;SDS011;34804;49.214;12.276;2024-01-15T10:37:33;11.77;;;5.88;;
48993;SDS011;34804;49.214;12.276;2024-01-15T10:40:03;12.15;;;5.40;;
48993;SDS011;34804;49.214;12.276;2024-01-15T10:42:31;13.25;;;5.85;;
48993;SDS011;34804;49.214;12.276;2024-01-15T10:44:58;14.10;;;5.57;;
48993;SDS011;34804;49.214;12.276;2024-01-15T10:47:25;10.98;;;5.53;;
48993;SDS011;34804;49.214;12.276;2024-01-15T10:49:53;11.98;;;5.30;;
48993;SDS011;34804;49.214;12.276;2024-01-15T10:52:20;12.32;;;5.57;;
48993;SDS011;34804;49.214;12.276;2024-01-15T10:54:48;15.88;;;5.85;;
48993;SDS011;34804;49.214;12.276;2024-01-15T10:57:16;14.98;;;6.53;;
48993;SDS011;34804;49.214;12.276;2024-01-15T10:59:43;11.77;;;5.85;;
48993;SDS011;34804;49.214;12.276;2024-01-15T11:02:10;11.10;;;5.15;;
48993;SDS011;34804;49.214;12.276;2024-01-15T11:04:38;15.02;;;5.45;;
48993;SDS011;34804;49.214;12.276;2024-01-15T11:07:05;14.20;;;5.50;;
48993;SDS011;34804;49.214;12.276;2024-01-15T11:09:34;14.82;;;5.60;;
48993;SDS011;34804;49.214;12.276;2024-01-15T11:12:11;12.93;;;5.57;;
48993;SDS011;34804;49.214;12.276;2024-01-15T11:14:40;11.85;;;5.38;;
48993;SDS011;34804;49.214;12.276;2024-01-15T11:17:11;14.95;;;6.43;;
48993;SDS011;34804;49.214;12.276;2024-01-15T11:19:43;10.93;;;5.32;;
48993;SDS011;34804;49.214;12.276;2024-01-15T11:24:57;14.52;;;6.38;;
48993;SDS011;34804;49.214;12.276;2024-01-15T11:27:39;12.23;;;5.68;;
48993;SDS011;34804;49.214;12.276;2024-01-15T11:30:13;12.18;;;5.60;;
48993;SDS011;34804;49.214;12.276;2024-01-15T11:32:41;13.90;;;5.68;;
48993;SDS011;34804;49.214;12.276;2024-01-15T11:35:09;15.02;;;5.45;;
48993;SDS011;34804;49.214;12.276;2024-01-15T11:40:21;13.32;;;5.78;;
48993;SDS011;34804;49.214;12.276;2024-01-15T11:42:49;14.75;;;6.00;;
48993;SDS011;34804;49.214;12.276;2024-01-15T11:45:19;12.32;;;5.53;;
48993;SDS011;34804;49.214;12.276;2024-01-15T11:50:44;14.82;;;5.93;;
48993;SDS011;34804;49.214;12.276;2024-01-15T11:53:16;16.38;;;6.22;;
48993;SDS011;34804;49.214;12.276;2024-01-15T11:55:50;13.82;;;6.20;;
48993;SDS011;34804;49.214;12.276;2024-01-15T11:58:18;15.73;;;5.35;;
48993;SDS011;34804;49.214;12.276;2024-01-15T12:00:46;10.38;;;5.28;;
48993;SDS011;34804;49.214;12.276;2024-01-15T12:03:15;13.25;;;5.30;;
48993;SDS011;34804;49.214;12.276;2024-01-15T12:05:42;11.93;;;5.13;;
48993;SDS011;34804;49.214;12.276;2024-01-15T12:08:09;11.93;;;5.65;;
48993;SDS011;34804;49.214;12.276;2024-01-15T12:10:39;14.25;;;5.15;;
48993;SDS011;34804;49.214;12.276;2024-01-15T12:13:12;10.10;;;4.80;;
48993;SDS011;34804;49.214;12.276;2024-01-15T12:15:41;10.93;;;5.10;;
48993;SDS011;34804;49.214;12.276;2024-01-15T12:18:10;10.55;;;4.78;;
48993;SDS011;34804;49.214;12.276;2024-01-15T12:20:39;12.10;;;5.28;;
48993;SDS011;34804;49.214;12.276;2024-01-15T12:23:06;10.70;;;4.60;;
48993;SDS011;34804;49.214;12.276;2024-01-15T12:25:35;10.20;;;3.85;;
48993;SDS011;34804;49.214;12.276;2024-01-15T12:28:03;11.63;;;4.57;;
48993;SDS011;34804;49.214;12.276;2024-01-15T12:30:31;11.13;;;5.05;;
48993;SDS011;34804;49.214;12.276;2024-01-15T12:33:01;10.80;;;4.82;;
48993;SDS011;34804;49.214;12.276;2024-01-15T12:35:33;12.45;;;4.40;;
48993;SDS011;34804;49.214;12.276;2024-01-15T12:38:00;9.70;;;3.78;;
48993;SDS011;34804;49.214;12.276;2024-01-15T12:40:31;11.77;;;4.20;;
48993;SDS011;34804;49.214;12.276;2024-01-15T12:43:00;11.20;;;5.20;;
48993;SDS011;34804;49.214;12.276;2024-01-15T12:45:28;11.80;;;4.90;;
48993;SDS011;34804;49.214;12.276;2024-01-15T12:47:56;10.82;;;4.68;;
48993;SDS011;34804;49.214;12.276;2024-01-15T12:50:25;9.35;;;4.05;;
48993;SDS011;34804;49.214;12.276;2024-01-15T12:52:53;9.20;;;4.40;;
48993;SDS011;34804;49.214;12.276;2024-01-15T12:55:20;9.88;;;4.80;;
48993;SDS011;34804;49.214;12.276;2024-01-15T12:57:47;9.93;;;4.40;;
48993;SDS011;34804;49.214;12.276;2024-01-15T13:00:16;9.32;;;4.38;;
48993;SDS011;34804;49.214;12.276;2024-01-15T13:02:43;9.00;;;4.70;;
48993;SDS011;34804;49.214;12.276;2024-01-15T13:05:11;11.35;;;4.72;;
48993;SDS011;34804;49.214;12.276;2024-01-15T13:07:41;10.65;;;4.43;;
48993;SDS011;34804;49.214;12.276;2024-01-15T13:10:09;12.82;;;4.78;;
48993;SDS011;34804;49.214;12.276;2024-01-15T13:12:36;12.48;;;5.00;;
48993;SDS011;34804;49.214;12.276;2024-01-15T13:15:05;11.25;;;5.35;;
48993;SDS011;34804;49.214;12.276;2024-01-15T13:17:32;9.45;;;4.70;;
48993;SDS011;34804;49.214;12.276;2024-01-15T13:19:59;9.45;;;4.72;;
48993;SDS011;34804;49.214;12.276;2024-01-15T13:22:27;11.63;;;5.13;;
48993;SDS011;34804;49.214;12.276;2024-01-15T13:24:59;10.77;;;4.97;;
48993;SDS011;34804;49.214;12.276;2024-01-15T13:27:27;9.77;;;4.63;;
48993;SDS011;34804;49.214;12.276;2024-01-15T13:29:55;10.70;;;4.75;;
48993;SDS011;34804;49.214;12.276;2024-01-15T13:32:25;14.30;;;5.90;;
48993;SDS011;34804;49.214;12.276;2024-01-15T13:34:53;13.25;;;5.30;;
48993;SDS011;34804;49.214;12.276;2024-01-15T13:37:21;11.30;;;5.40;;
48993;SDS011;34804;49.214;12.276;2024-01-15T13:39:54;11.05;;;5.80;;
48993;SDS011;34804;49.214;12.276;2024-01-15T13:42:22;12.85;;;4.85;;
48993;SDS011;34804;49.214;12.276;2024-01-15T13:44:52;12.23;;;5.40;;
48993;SDS011;34804;49.214;12.276;2024-01-15T13:47:18;11.52;;;5.15;;
48993;SDS011;34804;49.214;12.276;2024-01-15T13:49:45;12.95;;;5.60;;
48993;SDS011;34804;49.214;12.276;2024-01-15T13:52:13;14.27;;;6.10;;
48993;SDS011;34804;49.214;12.276;2024-01-15T13:54:40;10.98;;;5.07;;
48993;SDS011;34804;49.214;12.276;2024-01-15T13:57:16;13.43;;;5.35;;
48993;SDS011;34804;49.214;12.276;2024-01-15T13:59:47;11.10;;;5.45;;
48993;SDS011;34804;49.214;12.276;2024-01-15T14:02:15;13.38;;;6.30;;
48993;SDS011;34804;49.214;12.276;2024-01-15T14:04:47;14.23;;;5.57;;
48993;SDS011;34804;49.214;12.276;2024-01-15T14:07:15;15.40;;;5.95;;
48993;SDS011;34804;49.214;12.276;2024-01-15T14:09:43;13.45;;;5.35;;
48993;SDS011;34804;49.214;12.276;2024-01-15T14:12:10;14.82;;;5.53;;
48993;SDS011;34804;49.214;12.276;2024-01-15T14:14:38;10.77;;;5.10;;
48993;SDS011;34804;49.214;12.276;2024-01-15T14:17:05;11.43;;;5.65;;
48993;SDS011;34804;49.214;12.276;2024-01-15T14:19:32;11.25;;;4.90;;
48993;SDS011;34804;49.214;12.276;2024-01-15T14:21:59;12.95;;;5.40;;
48993;SDS011;34804;49.214;12.276;2024-01-15T14:24:26;11.60;;;5.57;;
48993;SDS011;34804;49.214;12.276;2024-01-15T14:26:53;10.25;;;5.18;;